Time;durP1;ratioP1;P1;durP2;ratioP2;P2;SDS_P1;SDS_P2;PMS_P1;PMS_P2;Temp;Humidity;BMP_temperature;BMP_pressure;BME280_temperature;BME280_humidity;BME280_pressure;Samples;Min_cycle;Max_cycle;Signal;HPM_P1;HPM_P2
2022/01/04 00:02:17;;;;;;;27.25;18.67;;;13.10;99.90;;;;;;5085540;28;20037;-65
2022/01/04 00:04:45;;;;;;;27.25;18.58;;;13.10;99.90;;;;;;5084178;28;20058;-65
2022/01/04 00:07:12;;;;;;;24.98;17.02;;;13.00;99.90;;;;;;5086617;28;20028;-64
2022/01/04 00:09:42;;;;;;;27.20;17.70;;;13.00;99.90;;;;;;5104866;28;20412;-63
2022/01/04 00:14:57;;;;;;;27.13;16.75;;;13.00;99.90;;;;;;5101040;28;20113;-65
2022/01/04 00:17:25;;;;;;;25.08;16.48;;;13.00;99.90;;;;;;5101346;28;20430;-64
2022/01/04 00:19:52;;;;;;;27.58;21.23;;;13.00;99.90;;;;;;5089242;28;20098;-63
2022/01/04 00:22:20;;;;;;;25.00;19.27;;;13.00;99.90;;;;;;5107394;27;20050;-64
2022/01/04 00:24:47;;;;;;;24.95;17.02;;;12.90;99.90;;;;;;5109767;28;20456;-65
2022/01/04 00:27:15;;;;;;;22.23;16.30;;;12.90;99.90;;;;;;5099484;27;20508;-64
2022/01/04 00:29:43;;;;;;;25.35;16.83;;;12.90;99.90;;;;;;5103895;28;20092;-65
2022/01/04 00:32:11;;;;;;;29.05;17.13;;;12.90;99.90;;;;;;5098694;28;20130;-65
2022/01/04 00:34:41;;;;;;;26.52;18.83;;;12.90;99.90;;;;;;5089453;28;20033;-66
2022/01/04 00:37:09;;;;;;;33.22;22.45;;;12.90;99.90;;;;;;5084991;28;20037;-64
2022/01/04 00:39:36;;;;;;;29.75;19.42;;;12.80;99.90;;;;;;5082687;28;20097;-65
2022/01/04 00:42:04;;;;;;;28.27;18.20;;;12.80;99.90;;;;;;5103509;28;20379;-66
2022/01/04 00:44:32;;;;;;;29.17;21.10;;;12.90;99.90;;;;;;5081218;28;20058;-66
2022/01/04 00:47:00;;;;;;;30.08;20.95;;;12.80;99.90;;;;;;5083368;28;20042;-65
2022/01/04 00:49:27;;;;;;;26.02;20.10;;;12.80;99.90;;;;;;5104016;28;20121;-65
2022/01/04 00:51:55;;;;;;;30.25;20.50;;;12.90;99.90;;;;;;5103290;28;20048;-65
2022/01/04 00:54:23;;;;;;;33.22;21.00;;;12.90;99.90;;;;;;5100575;28;20043;-65
2022/01/04 00:56:50;;;;;;;30.02;20.40;;;12.90;99.90;;;;;;5095602;28;20052;-65
2022/01/04 00:59:18;;;;;;;29.65;21.20;;;12.90;99.90;;;;;;5085070;28;20093;-65
2022/01/04 01:01:46;;;;;;;33.60;22.38;;;12.90;99.90;;;;;;5107107;28;20040;-65
2022/01/04 01:04:14;;;;;;;30.20;21.95;;;12.80;99.90;;;;;;5085072;28;20044;-65
2022/01/04 01:06:41;;;;;;;28.20;19.63;;;12.80;99.90;;;;;;5106150;28;20051;-65
2022/01/04 01:09:09;;;;;;;29.52;21.13;;;12.80;99.90;;;;;;5100827;28;20049;-66
2022/01/04 01:11:36;;;;;;;30.83;20.20;;;12.80;99.90;;;;;;5102714;28;20412;-65
2022/01/04 01:14:04;;;;;;;30.45;20.67;;;12.80;99.90;;;;;;5116276;28;20096;-66
2022/01/04 01:16:32;;;;;;;26.02;19.80;;;12.70;99.90;;;;;;5079984;28;20138;-65
2022/01/04 01:19:00;;;;;;;30.58;19.80;;;12.60;99.90;;;;;;5089259;28;20058;-66
2022/01/04 01:21:27;;;;;;;29.80;19.92;;;12.50;99.90;;;;;;5103167;28;20044;-66
2022/01/04 01:23:55;;;;;;;27.52;21.35;;;12.50;99.90;;;;;;5090301;28;20062;-66
2022/01/04 01:26:22;;;;;;;30.92;21.27;;;12.50;99.90;;;;;;5101599;28;20114;-65
2022/01/04 01:28:50;;;;;;;36.80;22.83;;;12.50;99.90;;;;;;5124652;27;20063;-65
2022/01/04 01:31:17;;;;;;;44.25;26.35;;;12.40;99.90;;;;;;5112260;28;20405;-65
2022/01/04 01:33:45;;;;;;;36.42;23.88;;;12.50;99.90;;;;;;5111206;28;20055;-65
2022/01/04 01:36:12;;;;;;;34.67;22.25;;;12.50;99.90;;;;;;5106480;28;20542;-66
2022/01/04 01:38:40;;;;;;;29.20;20.48;;;12.60;99.90;;;;;;5109254;28;20063;-66
2022/01/04 01:41:07;;;;;;;25.75;18.70;;;12.60;99.90;;;;;;5091059;28;20135;-65
2022/01/04 01:43:35;;;;;;;31.05;21.60;;;12.60;99.90;;;;;;5116709;28;20027;-66
2022/01/04 01:46:02;;;;;;;28.45;21.10;;;12.60;99.90;;;;;;5128029;27;20059;-66
2022/01/04 01:48:30;;;;;;;28.23;20.50;;;12.70;99.90;;;;;;5068872;28;20044;-66
2022/01/04 01:50:58;;;;;;;26.27;20.45;;;12.70;99.90;;;;;;5117497;28;20040;-65
2022/01/04 01:53:25;;;;;;;31.38;20.52;;;12.70;99.90;;;;;;5117611;28;20048;-66
2022/01/04 01:55:53;;;;;;;33.15;22.17;;;12.70;99.90;;;;;;5117626;28;20393;-66
2022/01/04 01:58:21;;;;;;;31.38;20.50;;;12.70;99.90;;;;;;5082328;28;20072;-66
2022/01/04 02:00:49;;;;;;;29.10;20.80;;;12.70;99.90;;;;;;5117503;28;20531;-66
2022/01/04 02:03:16;;;;;;;31.23;21.45;;;12.70;99.90;;;;;;5117322;28;20039;-66
2022/01/04 02:05:44;;;;;;;26.63;20.73;;;12.70;99.90;;;;;;5099211;28;20492;-66
2022/01/04 02:08:13;;;;;;;20.52;17.33;;;12.70;99.90;;;;;;5099271;28;20058;-65
2022/01/04 02:10:41;;;;;;;28.75;19.85;;;12.70;99.90;;;;;;5099251;28;20101;-65
2022/01/04 02:13:09;;;;;;;28.00;19.25;;;12.70;99.90;;;;;;5098885;28;20082;-65
2022/01/04 02:15:36;;;;;;;29.88;19.75;;;12.60;99.90;;;;;;5099036;28;20048;-65
2022/01/04 02:18:05;;;;;;;27.48;19.30;;;12.60;99.90;;;;;;5117124;28;20039;-65
2022/01/04 02:20:32;;;;;;;28.92;20.17;;;12.60;99.90;;;;;;5117205;28;20134;-66
2022/01/04 02:23:00;;;;;;;26.73;18.10;;;12.60;99.90;;;;;;5116981;28;20039;-66
2022/01/04 02:25:28;;;;;;;28.83;17.00;;;12.60;99.90;;;;;;5098936;28;20104;-66
2022/01/04 02:27:56;;;;;;;24.75;16.33;;;12.70;99.90;;;;;;5098763;28;20042;-66
2022/01/04 02:30:23;;;;;;;22.83;16.75;;;12.60;99.90;;;;;;5116744;28;20075;-66
2022/01/04 02:32:51;;;;;;;22.88;16.33;;;12.60;99.90;;;;;;5098478;28;20405;-66
2022/01/04 02:35:22;;;;;;;26.75;16.77;;;12.60;99.90;;;;;;5097820;28;20051;-66
2022/01/04 02:37:56;;;;;;;25.10;15.77;;;12.60;99.90;;;;;;5116914;28;20101;-65
2022/01/04 02:40:24;;;;;;;23.17;17.77;;;12.70;99.90;;;;;;5116810;28;20046;-65
2022/01/04 02:42:52;;;;;;;33.35;17.45;;;12.60;99.90;;;;;;5098466;28;20482;-66
2022/01/04 02:45:20;;;;;;;25.30;17.20;;;12.70;99.90;;;;;;5098601;28;20107;-65
2022/01/04 02:47:48;;;;;;;24.65;16.10;;;12.60;99.90;;;;;;5098403;28;20481;-65
2022/01/04 02:50:15;;;;;;;21.65;17.02;;;12.60;99.90;;;;;;5116751;28;20044;-65
2022/01/04 02:52:43;;;;;;;23.35;16.13;;;12.60;99.90;;;;;;5116577;28;20036;-65
2022/01/04 02:55:14;;;;;;;21.90;14.63;;;12.70;99.90;;;;;;5116385;28;20122;-66
2022/01/04 02:57:42;;;;;;;21.83;16.98;;;12.60;99.90;;;;;;5098118;28;20068;-65
2022/01/04 03:00:13;;;;;;;24.98;16.33;;;12.60;99.90;;;;;;5098555;28;20051;-66
2022/01/04 03:02:41;;;;;;;20.33;14.32;;;12.70;99.90;;;;;;5116464;28;20045;-65
2022/01/04 03:05:10;;;;;;;21.33;13.45;;;12.70;99.90;;;;;;5098490;28;20494;-65
2022/01/04 03:07:38;;;;;;;22.35;14.60;;;12.60;99.90;;;;;;5081259;28;20493;-65
2022/01/04 03:10:06;;;;;;;23.05;14.73;;;12.60;99.90;;;;;;5116042;28;20035;-65
2022/01/04 03:12:35;;;;;;;18.48;13.18;;;12.60;99.90;;;;;;5081362;28;20060;-65
2022/01/04 03:15:05;;;;;;;17.52;13.55;;;12.60;99.90;;;;;;5116063;28;20079;-65
2022/01/04 03:17:32;;;;;;;20.77;14.68;;;12.60;99.90;;;;;;5098096;28;20088;-65
2022/01/04 03:20:00;;;;;;;17.27;11.52;;;12.60;99.90;;;;;;5115979;28;20130;-65
2022/01/04 03:22:27;;;;;;;20.88;12.27;;;12.50;99.90;;;;;;5097744;28;20047;-65
2022/01/04 03:24:55;;;;;;;17.05;12.63;;;12.50;99.90;;;;;;5115814;28;20035;-66
2022/01/04 03:27:23;;;;;;;15.20;10.98;;;12.50;99.90;;;;;;5116005;28;20474;-65
2022/01/04 03:29:50;;;;;;;17.63;10.88;;;12.50;99.90;;;;;;5115847;28;20056;-65
2022/01/04 03:32:18;;;;;;;20.35;13.52;;;12.60;99.90;;;;;;5097490;28;20111;-65
2022/01/04 03:34:45;;;;;;;19.67;12.02;;;12.50;99.90;;;;;;5115711;28;20040;-65
2022/01/04 03:37:13;;;;;;;20.60;11.68;;;12.50;99.90;;;;;;5115662;28;20043;-65
2022/01/04 03:39:40;;;;;;;20.58;12.55;;;12.50;99.90;;;;;;5115580;28;20047;-65
2022/01/04 03:42:08;;;;;;;16.55;11.45;;;12.60;99.90;;;;;;5097493;28;20146;-65
2022/01/04 03:44:36;;;;;;;15.32;11.10;;;12.50;99.90;;;;;;5115385;28;20036;-63
2022/01/04 03:47:04;;;;;;;13.20;9.48;;;12.50;99.90;;;;;;5114846;28;20035;-63
2022/01/04 03:49:31;;;;;;;16.85;10.90;;;12.40;99.90;;;;;;5096969;28;20047;-63
2022/01/04 03:51:59;;;;;;;15.98;9.95;;;12.40;99.90;;;;;;5115311;28;20392;-63
2022/01/04 03:54:26;;;;;;;15.18;10.45;;;12.50;99.90;;;;;;5115142;28;20044;-63
2022/01/04 03:56:54;;;;;;;12.50;9.07;;;12.40;99.90;;;;;;5097256;28;20097;-64
2022/01/04 03:59:21;;;;;;;12.82;8.88;;;12.40;99.90;;;;;;5115166;28;20097;-64
2022/01/04 04:01:49;;;;;;;14.32;9.88;;;12.40;99.90;;;;;;5115238;28;20505;-64
2022/01/04 04:04:19;;;;;;;14.40;9.25;;;12.50;99.90;;;;;;5096725;28;20069;-64
2022/01/04 04:06:47;;;;;;;17.00;8.88;;;12.50;99.90;;;;;;5114992;28;20486;-64
2022/01/04 04:09:14;;;;;;;14.27;8.55;;;12.50;99.90;;;;;;5114852;28;20122;-65
2022/01/04 04:11:42;;;;;;;10.45;9.07;;;12.50;99.90;;;;;;5115107;28;20046;-65
2022/01/04 04:14:09;;;;;;;14.32;9.52;;;12.50;99.90;;;;;;5097092;28;20120;-65
2022/01/04 04:16:37;;;;;;;12.55;8.57;;;12.50;99.90;;;;;;5096772;28;20078;-64
2022/01/04 04:19:05;;;;;;;15.10;10.02;;;12.50;99.90;;;;;;5096904;28;20032;-65
2022/01/04 04:21:32;;;;;;;14.75;10.48;;;12.40;99.90;;;;;;5096633;28;20134;-65
2022/01/04 04:24:00;;;;;;;13.23;9.70;;;12.40;99.90;;;;;;5096815;28;20493;-64
2022/01/04 04:26:27;;;;;;;15.32;10.95;;;12.40;99.90;;;;;;5096772;28;20096;-64
2022/01/04 04:28:55;;;;;;;15.65;10.23;;;12.30;99.90;;;;;;5114647;28;20498;-64
2022/01/04 04:31:22;;;;;;;14.43;9.50;;;12.30;99.90;;;;;;5114568;28;20122;-65
2022/01/04 04:33:50;;;;;;;15.27;9.68;;;12.40;99.90;;;;;;5096305;28;20053;-65
2022/01/04 04:36:17;;;;;;;14.57;9.18;;;12.30;99.90;;;;;;5096384;28;20097;-65
2022/01/04 04:38:45;;;;;;;12.75;8.70;;;12.30;99.90;;;;;;5114462;28;20048;-64
2022/01/04 04:41:13;;;;;;;16.58;9.57;;;12.30;99.90;;;;;;5096351;28;20554;-65
2022/01/04 04:43:41;;;;;;;14.43;9.18;;;12.30;99.90;;;;;;5114596;28;20073;-65
2022/01/04 04:46:09;;;;;;;16.33;9.63;;;12.20;99.90;;;;;;5114257;28;20036;-65
2022/01/04 04:48:36;;;;;;;11.70;8.52;;;12.20;99.90;;;;;;5114545;28;20488;-65
2022/01/04 04:51:04;;;;;;;15.57;9.40;;;12.20;99.90;;;;;;5096041;28;20040;-65
2022/01/04 04:53:31;;;;;;;12.55;9.55;;;12.20;99.90;;;;;;5114231;28;20054;-65
2022/01/04 04:55:59;;;;;;;15.75;9.73;;;12.10;99.90;;;;;;5114076;28;20048;-65
2022/01/04 04:58:26;;;;;;;16.45;11.10;;;12.10;99.90;;;;;;5095345;28;20047;-65
2022/01/04 05:00:54;;;;;;;20.55;11.77;;;12.10;99.90;;;;;;5096205;28;20122;-65
2022/01/04 05:03:21;;;;;;;15.35;10.45;;;12.10;99.90;;;;;;5096188;28;20047;-65
2022/01/04 05:05:49;;;;;;;18.05;10.52;;;12.00;99.90;;;;;;5114027;28;20058;-65
2022/01/04 05:08:16;;;;;;;16.05;10.07;;;12.10;99.90;;;;;;5096016;28;20362;-65
2022/01/04 05:10:44;;;;;;;16.20;11.15;;;12.00;99.90;;;;;;5114140;28;20050;-65
2022/01/04 05:13:11;;;;;;;20.35;12.07;;;12.00;99.90;;;;;;5113976;28;20505;-65
2022/01/04 05:15:39;;;;;;;21.20;12.77;;;11.90;99.90;;;;;;5114050;28;20142;-65
2022/01/04 05:18:09;;;;;;;17.67;11.60;;;11.90;99.90;;;;;;5113892;28;20044;-65
2022/01/04 05:20:36;;;;;;;20.92;12.77;;;11.90;99.90;;;;;;5095945;28;20044;-65
2022/01/04 05:23:03;;;;;;;21.75;11.98;;;11.90;99.90;;;;;;5113938;28;20040;-65
2022/01/04 05:25:31;;;;;;;19.08;11.85;;;11.90;99.90;;;;;;5095638;28;20040;-65
2022/01/04 05:27:58;;;;;;;19.98;12.48;;;11.90;99.90;;;;;;5113897;28;20044;-65
2022/01/04 05:30:26;;;;;;;14.32;11.38;;;11.80;99.90;;;;;;5113790;28;20163;-65
2022/01/04 05:32:54;;;;;;;18.35;10.95;;;11.80;99.90;;;;;;5078921;28;20397;-65
2022/01/04 05:35:21;;;;;;;18.65;11.60;;;11.80;99.90;;;;;;5095969;28;20055;-65
2022/01/04 05:37:49;;;;;;;19.67;11.80;;;11.80;99.90;;;;;;5095866;28;20040;-65
2022/01/04 05:40:16;;;;;;;18.38;12.75;;;11.80;99.90;;;;;;5113651;28;20036;-65
2022/01/04 05:42:44;;;;;;;18.08;11.90;;;11.70;99.90;;;;;;5095512;28;20428;-65
2022/01/04 05:45:11;;;;;;;18.90;11.13;;;11.70;99.90;;;;;;5113829;28;20093;-65
2022/01/04 05:47:39;;;;;;;16.73;11.82;;;11.80;99.90;;;;;;5095470;28;20035;-65
2022/01/04 05:50:07;;;;;;;20.23;12.68;;;11.80;99.90;;;;;;5113578;28;20039;-65
2022/01/04 05:52:34;;;;;;;20.90;13.32;;;11.80;99.90;;;;;;5113636;28;20126;-65
2022/01/04 05:55:03;;;;;;;19.08;11.43;;;11.70;99.90;;;;;;5095601;28;20032;-65
2022/01/04 05:57:32;;;;;;;19.15;11.90;;;11.70;99.90;;;;;;5095477;28;20044;-65
2022/01/04 06:00:00;;;;;;;17.35;11.88;;;11.60;99.90;;;;;;5095364;28;20570;-65
2022/01/04 06:02:28;;;;;;;19.50;11.93;;;11.60;99.90;;;;;;5095533;28;20466;-65
2022/01/04 06:04:56;;;;;;;18.02;11.82;;;11.60;99.90;;;;;;5078942;28;20049;-65
2022/01/04 06:07:23;;;;;;;21.20;12.98;;;11.60;99.90;;;;;;5113670;28;20048;-65
2022/01/04 06:09:53;;;;;;;23.25;13.45;;;11.60;99.90;;;;;;5115818;28;20044;-65
2022/01/04 06:14:58;;;;;;;;;;;11.60;99.90;;;;;;5117771;28;20047;-65
2022/01/04 06:17:31;;;;;;;21.58;12.70;;;11.60;99.90;;;;;;5117383;28;19919;-65
2022/01/04 06:20:00;;;;;;;22.00;14.82;;;11.70;99.90;;;;;;5117198;28;20047;-65
2022/01/04 06:22:28;;;;;;;22.35;13.10;;;11.70;99.90;;;;;;5099120;28;20521;-65
2022/01/04 06:24:56;;;;;;;18.83;12.40;;;11.70;99.90;;;;;;5099140;28;20126;-65
2022/01/04 06:27:23;;;;;;;20.20;13.45;;;11.80;99.90;;;;;;5116871;28;20066;-65
2022/01/04 06:29:51;;;;;;;17.95;11.60;;;11.80;99.90;;;;;;5116842;28;20488;-65
2022/01/04 06:32:19;;;;;;;17.83;12.27;;;11.80;99.90;;;;;;5098931;28;20109;-65
2022/01/04 06:34:46;;;;;;;18.42;12.80;;;11.90;99.90;;;;;;5098857;28;20036;-65
2022/01/04 06:37:14;;;;;;;19.05;12.20;;;11.90;99.90;;;;;;5098727;28;20051;-65
2022/01/04 06:39:42;;;;;;;17.60;12.07;;;12.00;99.90;;;;;;5098788;28;20138;-65
2022/01/04 06:42:11;;;;;;;20.70;13.55;;;12.10;99.90;;;;;;5116641;28;20123;-65
2022/01/04 06:44:41;;;;;;;17.23;12.45;;;12.30;99.90;;;;;;5116662;28;20044;-65
2022/01/04 06:47:09;;;;;;;20.33;11.95;;;12.50;99.90;;;;;;5098509;28;20449;-65
2022/01/04 06:49:37;;;;;;;17.80;11.95;;;12.60;99.90;;;;;;5116603;28;20055;-63
2022/01/04 06:52:08;;;;;;;16.63;11.57;;;12.70;99.90;;;;;;5098469;28;20477;-63
2022/01/04 06:54:35;;;;;;;17.63;11.05;;;12.80;99.90;;;;;;5098138;28;20493;-63
2022/01/04 06:57:03;;;;;;;20.42;13.00;;;12.90;99.90;;;;;;5081440;28;20043;-64
2022/01/04 06:59:31;;;;;;;20.40;13.80;;;13.10;99.90;;;;;;5116535;28;20461;-63
2022/01/04 07:02:00;;;;;;;15.75;11.52;;;13.50;99.90;;;;;;5098333;28;20040;-63
2022/01/04 07:04:27;;;;;;;18.10;12.15;;;13.70;99.90;;;;;;5064652;28;20052;-64
2022/01/04 07:06:55;;;;;;;16.42;11.27;;;13.70;99.90;;;;;;5116237;28;20050;-64
2022/01/04 07:09:22;;;;;;;15.70;11.25;;;13.70;99.90;;;;;;5116053;28;20065;-64
2022/01/04 07:11:51;;;;;;;16.38;11.13;;;13.60;99.90;;;;;;5097986;28;20043;-64
2022/01/04 07:14:19;;;;;;;18.85;12.25;;;13.60;99.90;;;;;;5116180;28;20070;-64
2022/01/04 07:16:46;;;;;;;18.20;11.52;;;13.80;99.90;;;;;;5116139;28;20039;-65
2022/01/04 07:19:15;;;;;;;15.20;10.82;;;14.00;99.90;;;;;;5115859;28;20078;-65
2022/01/04 07:21:42;;;;;;;15.05;10.32;;;14.30;99.90;;;;;;5114984;28;20042;-65
2022/01/04 07:24:10;;;;;;;20.00;11.50;;;14.90;99.90;;;;;;5115902;28;20485;-65
2022/01/04 07:26:37;;;;;;;14.07;9.27;;;15.60;99.90;;;;;;5097751;28;20127;-65
2022/01/04 07:29:05;;;;;;;15.82;9.10;;;16.10;99.90;;;;;;5115820;28;20054;-65
2022/01/04 07:31:33;;;;;;;15.40;10.63;;;16.70;99.90;;;;;;5115600;28;20075;-65
2022/01/04 07:34:00;;;;;;;13.00;8.30;;;17.10;99.90;;;;;;5115583;28;20054;-65
2022/01/04 07:36:30;;;;;;;16.30;10.00;;;17.50;99.90;;;;;;5097415;28;20408;-64
2022/01/04 07:38:58;;;;;;;11.95;9.38;;;17.60;99.90;;;;;;5115742;28;20401;-65
2022/01/04 07:41:26;;;;;;;12.07;8.45;;;17.40;99.90;;;;;;5115697;28;20134;-64
2022/01/04 07:43:54;;;;;;;18.10;11.05;;;17.10;99.90;;;;;;5115671;28;20039;-65
2022/01/04 07:46:23;;;;;;;16.10;9.48;;;16.90;99.90;;;;;;5115497;28;20093;-65
2022/01/04 07:48:51;;;;;;;15.32;9.57;;;16.50;99.90;;;;;;5097199;28;20063;-65
2022/01/04 07:51:19;;;;;;;11.80;8.55;;;16.30;99.90;;;;;;5097131;28;20371;-65
2022/01/04 07:53:47;;;;;;;14.75;10.43;;;16.10;99.90;;;;;;5115386;28;20047;-65
2022/01/04 07:56:14;;;;;;;19.85;12.25;;;16.00;99.90;;;;;;5093288;28;20096;-66
2022/01/04 07:58:42;;;;;;;24.55;15.00;;;15.90;99.90;;;;;;5069716;28;20138;-66
2022/01/04 08:01:10;;;;;;;19.00;12.52;;;15.90;99.90;;;;;;5085330;28;20050;-66
2022/01/04 08:03:38;;;;;;;15.68;10.82;;;15.80;99.90;;;;;;5075745;28;20397;-66
2022/01/04 08:06:05;;;;;;;15.13;9.80;;;15.70;99.90;;;;;;5101279;28;20032;-66
2022/01/04 08:08:33;;;;;;;12.88;8.23;;;15.80;99.90;;;;;;5075962;28;20044;-66
2022/01/04 08:11:01;;;;;;;12.00;7.53;;;15.90;99.90;;;;;;5087516;28;20139;-67
2022/01/04 08:13:30;;;;;;;15.10;8.30;;;16.00;99.90;;;;;;5068586;28;20149;-66
2022/01/04 08:15:57;;;;;;;12.57;8.60;;;16.00;99.90;;;;;;5106423;28;20050;-66
2022/01/04 08:18:25;;;;;;;12.93;7.32;;;16.10;99.90;;;;;;5087451;28;20071;-66
2022/01/04 08:20:56;;;;;;;9.38;6.63;;;16.20;99.90;;;;;;5104158;28;20047;-66
2022/01/04 08:23:25;;;;;;;12.48;7.45;;;16.40;99.90;;;;;;5070513;28;20044;-66
2022/01/04 08:25:53;;;;;;;13.18;8.18;;;16.60;99.90;;;;;;5093526;28;20489;-66
2022/01/04 08:28:20;;;;;;;9.23;6.80;;;16.70;99.90;;;;;;5088481;28;20485;-66
2022/01/04 08:30:48;;;;;;;10.70;6.68;;;16.40;99.90;;;;;;5097988;28;20032;-66
2022/01/04 08:33:16;;;;;;;10.93;6.78;;;16.50;99.90;;;;;;5097064;28;20516;-66
2022/01/04 08:35:46;;;;;;;9.57;6.38;;;16.30;99.90;;;;;;5076002;28;20513;-66
2022/01/04 08:38:14;;;;;;;12.75;6.85;;;16.10;99.90;;;;;;5084744;28;20055;-65
2022/01/04 08:40:42;;;;;;;11.95;7.88;;;15.90;99.90;;;;;;5082875;28;20394;-65
2022/01/04 08:43:09;;;;;;;15.68;8.98;;;15.80;99.90;;;;;;5107275;28;20133;-65
2022/01/04 08:45:37;;;;;;;10.18;7.10;;;15.50;99.90;;;;;;5084673;28;20047;-66
2022/01/04 08:48:04;;;;;;;10.55;7.90;;;15.30;99.90;;;;;;5101212;28;20490;-66
2022/01/04 08:50:33;;;;;;;16.08;8.68;;;15.20;99.90;;;;;;5103451;28;20509;-65
2022/01/04 08:53:01;;;;;;;12.70;7.07;;;15.40;99.90;;;;;;5069938;28;20048;-66
2022/01/04 08:55:29;;;;;;;12.85;7.53;;;15.40;99.90;;;;;;5095373;27;20086;-65
2022/01/04 08:57:57;;;;;;;11.80;6.43;;;15.70;99.90;;;;;;5097886;28;20040;-64
2022/01/04 09:00:24;;;;;;;10.13;6.60;;;15.90;99.90;;;;;;5081569;28;20419;-64
2022/01/04 09:02:52;;;;;;;11.98;7.82;;;16.10;99.90;;;;;;5063510;28;20044;-65
2022/01/04 09:05:20;;;;;;;9.75;6.05;;;16.20;99.90;;;;;;5084970;28;20039;-66
2022/01/04 09:07:48;;;;;;;12.15;7.15;;;16.30;99.90;;;;;;5083357;28;20050;-66
2022/01/04 09:10:17;;;;;;;9.15;6.30;;;16.60;99.90;;;;;;5102674;28;20043;-66
2022/01/04 09:15:31;;;;;;;10.70;6.32;;;16.70;99.90;;;;;;5074684;28;20123;-66
2022/01/04 09:20:51;;;;;;;10.80;6.88;;;16.80;99.90;;;;;;5096108;28;20044;-66
2022/01/04 09:23:21;;;;;;;9.80;5.88;;;16.90;99.90;;;;;;5103110;28;20032;-65
2022/01/04 09:25:50;;;;;;;8.43;6.20;;;16.80;99.90;;;;;;5083431;28;20093;-65
2022/01/04 09:28:19;;;;;;;9.63;5.50;;;16.90;99.90;;;;;;5065613;28;20050;-66
2022/01/04 09:30:49;;;;;;;8.43;5.82;;;16.80;99.90;;;;;;5101222;28;20402;-66
2022/01/04 09:33:19;;;;;;;9.02;5.32;;;16.60;99.90;;;;;;5091289;28;20397;-65
2022/01/04 09:35:47;;;;;;;10.18;6.22;;;16.50;99.90;;;;;;5091596;28;20085;-65
2022/01/04 09:38:15;;;;;;;7.03;4.82;;;16.50;99.90;;;;;;5107579;28;20067;-65
2022/01/04 09:40:43;;;;;;;5.47;4.13;;;16.60;99.90;;;;;;5095336;28;20050;-65
2022/01/04 09:43:12;;;;;;;6.78;4.18;;;16.60;99.90;;;;;;5106761;28;20036;-66
2022/01/04 09:45:39;;;;;;;6.53;4.40;;;16.70;99.90;;;;;;5077500;28;20582;-66
2022/01/04 09:48:07;;;;;;;7.97;4.50;;;16.80;99.90;;;;;;5117384;28;20051;-65
2022/01/04 09:50:37;;;;;;;7.53;4.75;;;16.90;99.90;;;;;;5085896;28;20122;-66
2022/01/04 09:53:09;;;;;;;9.25;5.20;;;16.90;99.90;;;;;;5101539;28;20488;-65
2022/01/04 09:55:42;;;;;;;5.78;3.90;;;16.90;99.90;;;;;;5083276;28;20486;-65
2022/01/04 09:58:10;;;;;;;7.25;3.88;;;17.00;99.90;;;;;;5074112;28;20055;-65
2022/01/04 10:00:39;;;;;;;5.95;3.60;;;17.20;99.90;;;;;;5096909;28;20048;-66
2022/01/04 10:03:17;;;;;;;5.50;3.85;;;17.30;99.90;;;;;;5078544;28;20067;-65
2022/01/04 10:05:45;;;;;;;5.75;3.28;;;17.50;99.90;;;;;;5060738;28;20048;-65
2022/01/04 10:08:14;;;;;;;8.13;3.83;;;17.70;99.90;;;;;;5096977;28;20079;-65
2022/01/04 10:10:42;;;;;;;8.63;3.63;;;17.70;99.90;;;;;;5078560;28;20044;-66
2022/01/04 10:13:14;;;;;;;7.93;4.22;;;17.70;99.90;;;;;;5075313;28;20079;-64
2022/01/04 10:16:25;;;;;;;5.93;3.42;;;17.70;99.90;;;;;;5092720;28;20090;-64
2022/01/04 10:19:29;;;;;;;5.38;3.47;;;17.70;99.90;;;;;;5096112;28;20406;-64
2022/01/04 10:22:15;;;;;;;5.82;3.33;;;17.50;99.90;;;;;;5096777;28;20048;-65
2022/01/04 10:24:44;;;;;;;5.38;3.85;;;17.50;99.90;;;;;;5078980;28;20040;-65
2022/01/04 10:27:30;;;;;;;5.55;2.92;;;17.60;99.90;;;;;;5078749;28;20040;-66
2022/01/04 10:30:20;;;;;;;6.43;3.72;;;17.60;99.80;;;;;;5074879;28;20440;-65
2022/01/04 10:33:09;;;;;;;6.72;3.88;;;17.60;99.80;;;;;;5076247;28;20041;-66
2022/01/04 10:35:48;;;;;;;6.07;3.38;;;17.60;99.70;;;;;;5062021;28;20048;-66
2022/01/04 10:38:26;;;;;;;5.65;3.00;;;17.70;99.80;;;;;;5061625;28;20040;-65
2022/01/04 10:41:09;;;;;;;4.85;3.05;;;17.50;99.70;;;;;;5078356;28;20040;-64
2022/01/04 10:43:43;;;;;;;6.80;4.18;;;17.60;99.50;;;;;;5078391;28;20442;-64
2022/01/04 10:46:33;;;;;;;4.78;3.35;;;17.60;99.70;;;;;;5078337;28;20040;-63
2022/01/04 10:49:01;;;;;;;8.48;3.47;;;17.70;99.90;;;;;;5096171;28;20056;-64
2022/01/04 10:51:30;;;;;;;6.10;4.15;;;17.70;99.50;;;;;;5077914;28;20412;-64
2022/01/04 10:54:00;;;;;;;6.45;3.88;;;17.50;99.40;;;;;;5096423;28;20102;-64
2022/01/04 10:56:33;;;;;;;6.32;3.00;;;17.40;99.90;;;;;;5094853;28;20047;-65
2022/01/04 10:59:08;;;;;;;5.95;3.38;;;17.40;99.90;;;;;;5094924;28;20036;-64
2022/01/04 11:01:44;;;;;;;6.68;4.18;;;17.40;99.90;;;;;;5096079;28;20071;-64
2022/01/04 11:04:20;;;;;;;6.28;3.97;;;17.30;99.90;;;;;;5095915;28;20482;-65
2022/01/04 11:06:56;;;;;;;10.45;4.53;;;17.10;99.90;;;;;;5095909;28;20402;-65
2022/01/04 11:09:24;;;;;;;8.85;5.38;;;17.00;99.90;;;;;;5077955;28;20036;-65
2022/01/04 11:11:51;;;;;;;7.43;4.05;;;17.10;99.90;;;;;;5095684;28;20046;-65
2022/01/04 11:14:19;;;;;;;6.65;3.58;;;17.00;99.90;;;;;;5095773;28;20062;-65
2022/01/04 11:16:46;;;;;;;5.57;3.72;;;16.90;99.90;;;;;;5077648;28;20050;-65
2022/01/04 11:19:14;;;;;;;5.40;3.13;;;16.80;99.90;;;;;;5077557;28;20047;-65
2022/01/04 11:21:44;;;;;;;6.05;3.90;;;16.90;99.90;;;;;;5095867;28;20052;-65
2022/01/04 11:24:16;;;;;;;5.22;3.25;;;16.70;99.90;;;;;;5095483;28;20044;-65
2022/01/04 11:26:46;;;;;;;7.22;3.58;;;16.70;99.90;;;;;;5095557;28;20054;-65
2022/01/04 11:29:20;;;;;;;4.57;2.75;;;16.90;99.90;;;;;;5094137;28;20052;-65
2022/01/04 11:31:47;;;;;;;5.20;2.90;;;17.00;99.90;;;;;;5077390;28;20131;-65
2022/01/04 11:34:25;;;;;;;4.65;2.30;;;16.80;99.90;;;;;;5061079;28;20105;-65
2022/01/04 11:36:53;;;;;;;5.88;2.95;;;16.90;99.90;;;;;;5060770;28;20425;-66
2022/01/04 11:39:35;;;;;;;4.90;3.05;;;17.10;99.70;;;;;;5095215;28;20067;-66
2022/01/04 11:42:07;;;;;;;6.85;3.15;;;17.20;99.00;;;;;;5060763;28;20097;-65
2022/01/04 11:44:51;;;;;;;5.85;3.55;;;17.10;99.20;;;;;;5077320;28;20046;-69
2022/01/04 11:47:30;;;;;;;4.43;2.90;;;17.10;99.70;;;;;;5076868;28;20402;-68
2022/01/04 11:50:24;;;;;;;6.25;3.45;;;17.40;99.70;;;;;;5077240;28;20114;-66
2022/01/04 11:52:58;;;;;;;5.07;3.17;;;17.40;98.50;;;;;;5076975;28;20040;-63
2022/01/04 11:55:29;;;;;;;8.60;5.82;;;17.20;98.70;;;;;;5060385;28;20051;-64
2022/01/04 11:58:00;;;;;;;6.13;3.63;;;17.20;99.00;;;;;;5077215;28;20386;-63
2022/01/04 12:00:40;;;;;;;8.68;3.85;;;17.30;98.90;;;;;;5076827;28;20044;-71
2022/01/04 12:03:14;;;;;;;10.60;3.38;;;17.20;98.80;;;;;;5077092;28;20062;-69
2022/01/04 12:05:56;;;;;;;9.48;4.57;;;17.30;99.30;;;;;;5076940;28;20044;-68
2022/01/04 12:08:26;;;;;;;7.00;4.00;;;17.30;99.10;;;;;;5094054;28;20486;-70
2022/01/04 12:10:57;;;;;;;4.88;2.83;;;17.20;98.90;;;;;;5076343;28;20436;-70
2022/01/04 12:13:25;;;;;;;3.92;3.22;;;16.90;99.00;;;;;;5076231;28;20188;-70
2022/01/04 12:15:54;;;;;;;7.07;3.53;;;16.90;99.20;;;;;;5059620;28;20503;-70
2022/01/04 12:18:37;;;;;;;5.82;3.50;;;16.80;98.60;;;;;;5075898;28;20482;-69
2022/01/04 12:21:29;;;;;;;3.90;2.58;;;16.90;98.60;;;;;;5076325;28;20506;-69
2022/01/04 12:23:57;;;;;;;5.05;2.40;;;16.70;99.20;;;;;;5094382;28;20420;-69
2022/01/04 12:26:32;;;;;;;6.13;3.00;;;16.60;99.00;;;;;;5076256;28;20588;-69
2022/01/04 12:29:02;;;;;;;7.65;3.53;;;16.60;99.20;;;;;;5076376;28;20036;-69
2022/01/04 12:31:32;;;;;;;6.68;3.67;;;16.60;99.40;;;;;;5093839;28;20056;-69
2022/01/04 12:34:03;;;;;;;4.65;3.03;;;16.40;99.50;;;;;;5075791;28;20040;-69
2022/01/04 12:36:42;;;;;;;5.40;2.83;;;16.40;99.90;;;;;;5093531;28;20643;-69
2022/01/04 12:39:19;;;;;;;5.97;3.67;;;16.40;99.90;;;;;;5093502;28;20036;-69
2022/01/04 12:41:51;;;;;;;4.57;2.42;;;16.30;99.90;;;;;;5076061;28;20140;-69
2022/01/04 12:44:24;;;;;;;4.10;2.70;;;16.50;99.90;;;;;;5076133;28;20063;-69
2022/01/04 12:46:52;;;;;;;5.18;2.97;;;16.50;99.80;;;;;;5092572;28;20092;-68
2022/01/04 12:49:22;;;;;;;4.90;3.47;;;16.50;99.90;;;;;;5075571;28;20482;-69
2022/01/04 12:51:57;;;;;;;4.97;2.92;;;16.60;99.90;;;;;;5093540;28;20052;-69
2022/01/04 12:54:33;;;;;;;5.13;2.97;;;16.50;99.90;;;;;;5093854;28;20089;-69
2022/01/04 12:57:22;;;;;;;;;;;16.50;99.90;;;;;;5076030;28;20055;-69
2022/01/04 12:59:56;;;;;;;3.83;2.78;;;16.40;99.90;;;;;;5094033;28;19924;-69